Burlington, WA (98233)

11:40 AM PDT on May 05, 2015 (GMT -0700)
Bow | | Change Station
CLOSE
Current Station
Personal Weather Station
Location: Bow, WA
Elevation: 85 ft
Nearby Weather Stations

Elev 85 ft 48.54 °N, 122.37 °W | Updated 19 seconds ago

Overcast
Overcast
47.5 °F
Feels Like 47 °F
N
3.1
Wind Variable Wind from ENE
Gusts 10.0 mph

Today
High -- | Low -- °F
--% Chance of Precip.
Yesterday
High -- | Low -- °F
Precip. -- in
5:43 AM 8:29 PM
Full, 97% visible
Pressure 30.06 in
Visibility 10.0 miles
Clouds Overcast 2000 ft
Windchill 47 °F
Dew Point 44 °F
Humidity 86%
Rainfall 0.81 in
Snow Depth Not available.
UV 2 out of 12
Pollen 4.40 out of 12
Air Quality Not available.
Flu Activity Sporadic
METAR KBVS 051815Z AUTO 08005KT 10SM OVC020 09/07 A3006 RMK A01

More Conditions Fewer Conditions

Pressure 30.06 in
Visibility 10.0 miles
Clouds Overcast 2000 ft
Windchill 47 °F
Dew Point 44 °F
Humidity 86%
Rainfall 0.81 in
Snow Depth Not available.
UV 2 out of 12
Pollen 4.40 out of 12
Air Quality Not available.
Flu Activity Sporadic
METAR KBVS 051815Z AUTO 08005KT 10SM OVC020 09/07 A3006 RMK A01

More Conditions Fewer Conditions

10-Day Weather Forecast

Almanac

Astronomy

May. 05, 2015 Rise Set
Actual Time
Civil Twilight
Nautical Twilight
Astronomical Twilight
Moon
Length of Visible Light
Length of Day
Tomorrow will be .
, % of the Moon is Illuminated

Today's Extremes

State Highs State Lows

Community

WunderPhotos

Upload Photos

1,818,953 photos uploaded!

WunderBlogs® & News

Nearby

Air Quality

  Air Quality AQ Index Pollutant
Not available.

Snow Depth

Station Depth Elevation

Earthquake Activity

City Distance Mag. Time & Date
Minimum magnitude displayed is 2.5.

Coastal Water Temperatures

Place Temperature

Stations

Nearby Weather Stations

Station Location Temp. Windchill Dew Point Humidity Wind Precip. Elev Updated Type